Latest Weather Observations for Wattamolla

IDN60801

Issued at 10:12 am EDT Friday 9 December 2022 (issued every 10 minutes, with the page automatically refreshed every 10 minutes)

About weather observations | Map of weather stations | Latest weather observations for NSW | Other Formats
Station Details ID: 066208 Name: WATTAMOLLA AWS Lat: -34.14 Lon: 151.12 Height: 44.0 m
Data from the previous 72 hours. | See also: Recent months at Wattamolla
Date/Time
EDT
Temp
°C
App
Temp
°C
Dew
Point
°C
Rel
Hum
%
Delta-T
°C
Wind Press
QNH
hPa
Press
MSL
hPa
Rain since
9am
mm
Dir  Spd
km/h
Gust
km/h
Spd
kts
Gust
kts
09/10:00am - - - - - S 33 39 18 21 - - -
09/09:30am - - - - - S 33 41 18 22 - - -
09/09:00am - - - - - S 32 37 17 20 - - -
09/08:30am - - - - - S 30 43 16 23 - - -
09/08:00am - - - - - S 32 39 17 21 - - -
09/07:30am - - - - - SSE 35 44 19 24 - - -
09/07:00am - - - - - S 37 48 20 26 - - -
09/06:30am - - - - - SSE 35 43 19 23 - - -
09/06:00am - - - - - SSE 37 50 20 27 - - -
09/05:30am - - - - - S 37 46 20 25 - - -
09/05:00am - - - - - SSE 43 56 23 30 - - -
09/04:30am - - - - - S 43 52 23 28 - - -
09/04:00am - - - - - S 43 56 23 30 - - -
09/03:30am - - - - - S 46 54 25 29 - - -
09/03:00am - - - - - S 46 54 25 29 - - -
09/02:30am - - - - - S 41 56 22 30 - - -
09/02:00am - - - - - S 39 46 21 25 - - -
09/01:30am - - - - - SSE 39 52 21 28 - - -
09/01:00am - - - - - SSE 39 50 21 27 - - -
09/12:30am - - - - - SSE 44 57 24 31 - - -
09/12:25am - - - - - SSE 39 57 21 31 - - -
09/12:00am - - - - - S 33 39 18 21 - - -
 
Date/Time
EDT
Temp
°C
App
Temp
°C
Dew
Point
°C
Rel
Hum
%
Delta-T
°C
Wind Press
QNH
hPa
Press
MSL
hPa
Rain since
9am
mm
Dir  Spd
km/h
Gust
km/h
Spd
kts
Gust
kts
08/11:30pm - - - - - SSE 33 43 18 23 - - -
08/11:00pm - - - - - S 35 43 19 23 - - -
08/10:30pm - - - - - SSE 32 39 17 21 - - -
08/10:00pm - - - - - SSE 32 39 17 21 - - -
08/09:30pm - - - - - SSE 33 44 18 24 - - -
08/09:00pm - - - - - SSE 37 48 20 26 - - -
08/08:30pm - - - - - SSE 37 46 20 25 - - -
08/08:00pm - - - - - SSE 35 48 19 26 - - -
08/07:30pm - - - - - SSE 35 44 19 24 - - -
08/07:00pm - - - - - SSE 35 44 19 24 - - -
08/06:30pm - - - - - SSE 33 44 18 24 - - -
08/06:00pm - - - - - SSE 37 48 20 26 - - -
08/05:30pm - - - - - SSE 35 50 19 27 - - -
08/05:00pm - - - - - SSE 33 46 18 25 - - -
08/04:30pm - - - - - SSE 35 50 19 27 - - -
08/04:00pm - - - - - SSE 35 48 19 26 - - -
08/03:30pm - - - - - SSE 30 43 16 23 - - -
08/03:00pm - - - - - SSE 33 48 18 26 - - -
08/02:30pm - - - - - SSE 32 43 17 23 - - -
08/02:00pm - - - - - SSE 30 41 16 22 - - -
08/01:30pm - - - - - SSE 30 41 16 22 - - -
08/01:00pm - - - - - SSE 32 41 17 22 - - -
08/12:30pm - - - - - SSE 28 41 15 22 - - -
08/12:00pm - - - - - SSE 28 39 15 21 - - -
08/11:30am - - - - - SSE 30 39 16 21 - - -
08/11:00am - - - - - SSE 33 41 18 22 - - -
08/10:30am - - - - - SSE 32 39 17 21 - - -
08/10:00am - - - - - SSE 37 48 20 26 - - -
08/09:30am - - - - - SSE 41 52 22 28 - - -
08/09:00am - - - - - SSE 35 44 19 24 - - -
08/08:30am - - - - - S 33 39 18 21 - - -
08/08:00am - - - - - S 26 39 14 21 - - -
08/07:30am - - - - - S 30 41 16 22 - - -
08/07:00am - - - - - S 35 43 19 23 - - -
08/06:30am - - - - - S 39 48 21 26 - - -
08/06:00am - - - - - S 37 44 20 24 - - -
08/05:43am - - - - - SSW 24 44 13 24 - - -
08/05:30am - - - - - WSW 19 24 10 13 - - -
08/05:00am - - - - - W 19 26 10 14 - - -
08/04:30am - - - - - W 15 20 8 11 - - -
08/04:00am - - - - - W 28 46 15 25 - - -
08/03:45am - - - - - W 28 48 15 26 - - -
08/03:30am - - - - - W 28 37 15 20 - - -
08/03:00am - - - - - W 32 44 17 24 - - -
08/02:30am - - - - - W 32 46 17 25 - - -
08/02:17am - - - - - WNW 28 46 15 25 - - -
08/02:00am - - - - - WNW 20 39 11 21 - - -
08/01:30am - - - - - S 4 13 2 7 - - -
08/01:00am - - - - - CALM 0 0 0 0 - - -
08/12:30am - - - - - N 2 9 1 5 - - -
08/12:00am - - - - - NW 11 17 6 9 - - -
 
Date/Time
EDT
Temp
°C
App
Temp
°C
Dew
Point
°C
Rel
Hum
%
Delta-T
°C
Wind Press
QNH
hPa
Press
MSL
hPa
Rain since
9am
mm
Dir  Spd
km/h
Gust
km/h
Spd
kts
Gust
kts
07/11:30pm - - - - - WNW 9 13 5 7 - - -
07/11:00pm - - - - - NW 9 15 5 8 - - -
07/10:30pm - - - - - NNE 6 13 3 7 - - -
07/10:00pm - - - - - NNW 7 9 4 5 - - -
07/09:30pm - - - - - N 6 9 3 5 - - -
07/09:00pm - - - - - NW 9 17 5 9 - - -
07/08:30pm - - - - - WNW 17 22 9 12 - - -
07/08:00pm - - - - - NNW 11 13 6 7 - - -
07/07:30pm - - - - - NW 13 19 7 10 - - -
07/07:00pm - - - - - NW 15 20 8 11 - - -
07/06:30pm - - - - - NNW 11 19 6 10 - - -
07/06:00pm - - - - - NW 13 19 7 10 - - -
07/05:30pm - - - - - NW 11 15 6 8 - - -
07/05:00pm - - - - - NNW 11 19 6 10 - - -
07/04:30pm - - - - - CALM 0 0 0 0 - - -
07/04:00pm - - - - - CALM 0 7 0 4 - - -
07/03:30pm - - - - - N 11 17 6 9 - - -
07/03:00pm - - - - - N 6 11 3 6 - - -
07/02:30pm - - - - - NNE 9 17 5 9 - - -
07/02:00pm - - - - - NNW 13 19 7 10 - - -
07/01:30pm - - - - - WNW 15 26 8 14 - - -
07/01:00pm - - - - - WNW 15 26 8 14 - - -
07/12:30pm - - - - - NW 15 28 8 15 - - -
07/12:00pm - - - - - NW 17 26 9 14 - - -
07/11:30am - - - - - WNW 11 24 6 13 - - -
07/11:00am - - - - - NE 15 26 8 14 - - -
07/10:30am - - - - - N 17 26 9 14 - - -
07/10:00am - - - - - N 15 24 8 13 - - -
07/09:30am - - - - - N 15 28 8 15 - - -
07/09:00am - - - - - NNW 13 22 7 12 - - -
07/08:30am - - - - - N 19 26 10 14 - - -
07/08:00am - - - - - NNW 17 26 9 14 - - -
07/07:30am - - - - - N 17 22 9 12 - - -
07/07:00am - - - - - N 13 19 7 10 - - -
07/06:30am - - - - - N 13 15 7 8 - - -
07/06:00am - - - - - NNW 13 15 7 8 - - -
07/05:30am - - - - - N 13 15 7 8 - - -
07/05:00am - - - - - N 13 17 7 9 - - -
07/04:30am - - - - - N 13 15 7 8 - - -
07/04:00am - - - - - NNW 11 13 6 7 - - -
07/03:30am - - - - - NNW 11 13 6 7 - - -
07/03:00am - - - - - NNW 13 15 7 8 - - -
07/02:30am - - - - - NW 11 13 6 7 - - -
07/02:00am - - - - - NW 11 13 6 7 - - -
07/01:30am - - - - - NW 11 13 6 7 - - -
07/01:00am - - - - - NW 11 13 6 7 - - -
07/12:30am - - - - - NE 2 11 1 6 - - -
07/12:00am - - - - - CALM 0 0 0 0 - - -
 
Date/Time
EDT
Temp
°C
App
Temp
°C
Dew
Point
°C
Rel
Hum
%
Delta-T
°C
Wind Press
QNH
hPa
Press
MSL
hPa
Rain since
9am
mm
Dir  Spd
km/h
Gust
km/h
Spd
kts
Gust
kts
06/11:30pm - - - - - CALM 0 0 0 0 - - -
06/11:00pm - - - - - CALM 0 9 0 5 - - -
06/10:30pm - - - - - ESE 7 11 4 6 - - -
06/10:00pm - - - - - SE 13 17 7 9 - - -
06/09:30pm - - - - - SE 17 19 9 10 - - -
06/09:00pm - - - - - SE 15 19 8 10 - - -
06/08:30pm - - - - - SSE 19 24 10 13 - - -
06/08:00pm - - - - - SSE 17 24 9 13 - - -
06/07:30pm - - - - - SSE 20 30 11 16 - - -
06/07:00pm - - - - - SSE 20 32 11 17 - - -
06/06:30pm - - - - - SSE 24 30 13 16 - - -
06/06:00pm - - - - - SSE 28 37 15 20 - - -
06/05:30pm - - - - - SSE 32 41 17 22 - - -
06/05:00pm - - - - - SSE 30 39 16 21 - - -
06/04:30pm - - - - - SSE 32 43 17 23 - - -
06/04:00pm - - - - - SSE 32 39 17 21 - - -
06/03:30pm - - - - - SSE 32 39 17 21 - - -
06/03:00pm - - - - - SSE 26 35 14 19 - - -
06/02:30pm - - - - - SSE 28 35 15 19 - - -
06/02:00pm - - - - - SSE 26 33 14 18 - - -
06/01:30pm - - - - - SSE 30 37 16 20 - - -
06/01:00pm - - - - - SSE 32 41 17 22 - - -
06/12:30pm - - - - - SSE 33 41 18 22 - - -
06/12:00pm - - - - - SSE 39 48 21 26 - - -
06/11:30am - - - - - SSE 33 41 18 22 - - -
06/11:00am - - - - - SSE 35 43 19 23 - - -
06/10:30am - - - - - SSE 35 41 19 22 - - -

Other formats

Comma delimited format used in spreadsheet applications
http://www.bom.gov.au/fwo/IDN60801/IDN60801.95752.axf

JavaScript Object Notation format (JSON) in row-major order
http://www.bom.gov.au/fwo/IDN60801/IDN60801.95752.json

Data quality

Most of these data are generated automatically and are frequently updated. Quality checks on data are not normally performed. It is possible for incorrect values to appear. Refer to information at About Latest Weather Observations and please check the disclaimer before using these data.